sensor_id;sensor_type;location;lat;lon;timestamp;P1;durP1;ratioP1;P2;durP2;ratioP2
34144;SDS011;69555;53.014;8.886;2023-07-13T00:01:04;15.40;;;5.40;;
34144;SDS011;69555;53.014;8.886;2023-07-13T00:03:31;9.93;;;5.88;;
34144;SDS011;69555;53.014;8.886;2023-07-13T00:06:00;10.00;;;4.80;;
34144;SDS011;69555;53.014;8.886;2023-07-13T00:08:26;9.52;;;5.50;;
34144;SDS011;69555;53.014;8.886;2023-07-13T00:10:52;7.82;;;4.47;;
34144;SDS011;69555;53.014;8.886;2023-07-13T00:13:19;13.07;;;5.35;;
34144;SDS011;69555;53.014;8.886;2023-07-13T00:15:45;14.07;;;5.43;;
34144;SDS011;69555;53.014;8.886;2023-07-13T00:18:10;11.05;;;5.95;;
34144;SDS011;69555;53.014;8.886;2023-07-13T00:20:35;13.18;;;5.70;;
34144;SDS011;69555;53.014;8.886;2023-07-13T00:23:01;9.13;;;5.68;;
34144;SDS011;69555;53.014;8.886;2023-07-13T00:25:27;15.98;;;5.75;;
34144;SDS011;69555;53.014;8.886;2023-07-13T00:27:55;11.57;;;6.00;;
34144;SDS011;69555;53.014;8.886;2023-07-13T00:30:21;18.95;;;6.53;;
34144;SDS011;69555;53.014;8.886;2023-07-13T00:32:47;10.38;;;5.55;;
34144;SDS011;69555;53.014;8.886;2023-07-13T00:35:13;13.23;;;5.65;;
34144;SDS011;69555;53.014;8.886;2023-07-13T00:37:40;14.43;;;6.55;;
34144;SDS011;69555;53.014;8.886;2023-07-13T00:40:06;16.58;;;6.70;;
34144;SDS011;69555;53.014;8.886;2023-07-13T00:42:32;14.93;;;6.38;;
34144;SDS011;69555;53.014;8.886;2023-07-13T00:46:10;11.35;;;5.50;;
34144;SDS011;69555;53.014;8.886;2023-07-13T00:47:53;10.27;;;5.75;;
34144;SDS011;69555;53.014;8.886;2023-07-13T00:50:21;18.27;;;6.13;;
34144;SDS011;69555;53.014;8.886;2023-07-13T00:52:48;22.77;;;5.93;;
34144;SDS011;69555;53.014;8.886;2023-07-13T00:55:16;20.20;;;6.13;;
34144;SDS011;69555;53.014;8.886;2023-07-13T00:57:43;11.90;;;5.47;;
34144;SDS011;69555;53.014;8.886;2023-07-13T01:00:09;22.85;;;6.55;;
34144;SDS011;69555;53.014;8.886;2023-07-13T01:02:37;20.67;;;6.40;;
34144;SDS011;69555;53.014;8.886;2023-07-13T01:05:08;18.40;;;6.28;;
34144;SDS011;69555;53.014;8.886;2023-07-13T01:07:35;24.80;;;7.22;;
34144;SDS011;69555;53.014;8.886;2023-07-13T01:10:01;29.80;;;7.10;;
34144;SDS011;69555;53.014;8.886;2023-07-13T01:12:27;20.40;;;6.35;;
34144;SDS011;69555;53.014;8.886;2023-07-13T01:14:59;14.10;;;6.75;;
34144;SDS011;69555;53.014;8.886;2023-07-13T01:17:26;20.15;;;8.05;;
34144;SDS011;69555;53.014;8.886;2023-07-13T01:19:53;12.32;;;7.30;;
34144;SDS011;69555;53.014;8.886;2023-07-13T01:22:18;23.10;;;8.38;;
34144;SDS011;69555;53.014;8.886;2023-07-13T01:24:45;13.80;;;7.03;;
34144;SDS011;69555;53.014;8.886;2023-07-13T01:27:14;25.33;;;8.45;;
34144;SDS011;69555;53.014;8.886;2023-07-13T01:29:41;22.27;;;8.90;;
34144;SDS011;69555;53.014;8.886;2023-07-13T01:32:09;17.27;;;8.07;;
34144;SDS011;69555;53.014;8.886;2023-07-13T01:34:36;16.10;;;7.90;;
34144;SDS011;69555;53.014;8.886;2023-07-13T01:37:02;12.77;;;6.97;;
34144;SDS011;69555;53.014;8.886;2023-07-13T01:39:29;16.13;;;7.65;;
34144;SDS011;69555;53.014;8.886;2023-07-13T01:41:55;15.95;;;7.72;;
34144;SDS011;69555;53.014;8.886;2023-07-13T01:44:20;19.92;;;8.80;;
34144;SDS011;69555;53.014;8.886;2023-07-13T01:46:45;18.27;;;8.40;;
34144;SDS011;69555;53.014;8.886;2023-07-13T01:49:11;15.73;;;8.05;;
34144;SDS011;69555;53.014;8.886;2023-07-13T01:51:36;21.35;;;7.88;;
34144;SDS011;69555;53.014;8.886;2023-07-13T01:54:02;22.98;;;7.30;;
34144;SDS011;69555;53.014;8.886;2023-07-13T01:56:27;20.13;;;8.05;;
34144;SDS011;69555;53.014;8.886;2023-07-13T01:58:53;14.30;;;7.53;;
34144;SDS011;69555;53.014;8.886;2023-07-13T02:01:18;14.55;;;7.30;;
34144;SDS011;69555;53.014;8.886;2023-07-13T02:03:44;25.60;;;8.88;;
34144;SDS011;69555;53.014;8.886;2023-07-13T02:06:09;20.67;;;8.32;;
34144;SDS011;69555;53.014;8.886;2023-07-13T02:08:34;16.27;;;8.18;;
34144;SDS011;69555;53.014;8.886;2023-07-13T02:11:02;20.35;;;8.80;;
34144;SDS011;69555;53.014;8.886;2023-07-13T02:13:28;25.38;;;9.20;;
34144;SDS011;69555;53.014;8.886;2023-07-13T02:15:53;17.73;;;8.55;;
34144;SDS011;69555;53.014;8.886;2023-07-13T02:18:19;22.83;;;8.25;;
34144;SDS011;69555;53.014;8.886;2023-07-13T02:20:44;22.23;;;8.70;;
34144;SDS011;69555;53.014;8.886;2023-07-13T02:23:10;27.25;;;9.65;;
34144;SDS011;69555;53.014;8.886;2023-07-13T02:25:35;20.45;;;9.65;;
34144;SDS011;69555;53.014;8.886;2023-07-13T02:28:01;22.58;;;9.48;;
34144;SDS011;69555;53.014;8.886;2023-07-13T02:30:26;24.88;;;9.57;;
34144;SDS011;69555;53.014;8.886;2023-07-13T02:32:54;19.50;;;9.27;;
34144;SDS011;69555;53.014;8.886;2023-07-13T02:35:20;29.83;;;7.97;;
34144;SDS011;69555;53.014;8.886;2023-07-13T02:37:45;20.80;;;10.05;;
34144;SDS011;69555;53.014;8.886;2023-07-13T02:40:11;21.98;;;9.07;;
34144;SDS011;69555;53.014;8.886;2023-07-13T02:42:37;20.08;;;8.52;;
34144;SDS011;69555;53.014;8.886;2023-07-13T02:45:02;16.65;;;7.43;;
34144;SDS011;69555;53.014;8.886;2023-07-13T02:47:28;14.80;;;7.40;;
34144;SDS011;69555;53.014;8.886;2023-07-13T02:49:53;20.15;;;7.90;;
34144;SDS011;69555;53.014;8.886;2023-07-13T02:52:19;28.77;;;8.77;;
34144;SDS011;69555;53.014;8.886;2023-07-13T02:54:44;19.65;;;7.72;;
34144;SDS011;69555;53.014;8.886;2023-07-13T02:57:10;19.60;;;7.28;;
34144;SDS011;69555;53.014;8.886;2023-07-13T02:59:35;19.35;;;7.38;;
34144;SDS011;69555;53.014;8.886;2023-07-13T03:02:02;18.90;;;7.72;;
34144;SDS011;69555;53.014;8.886;2023-07-13T03:04:27;17.77;;;6.93;;
34144;SDS011;69555;53.014;8.886;2023-07-13T03:06:53;12.98;;;6.30;;
34144;SDS011;69555;53.014;8.886;2023-07-13T03:09:22;18.63;;;7.13;;
34144;SDS011;69555;53.014;8.886;2023-07-13T03:11:48;17.85;;;7.15;;
34144;SDS011;69555;53.014;8.886;2023-07-13T03:14:13;28.02;;;6.60;;
34144;SDS011;69555;53.014;8.886;2023-07-13T03:16:39;12.48;;;5.30;;
34144;SDS011;69555;53.014;8.886;2023-07-13T03:19:05;20.23;;;6.13;;
34144;SDS011;69555;53.014;8.886;2023-07-13T03:21:30;20.90;;;5.55;;
34144;SDS011;69555;53.014;8.886;2023-07-13T03:23:55;13.95;;;5.07;;
34144;SDS011;69555;53.014;8.886;2023-07-13T03:26:21;16.98;;;5.20;;
34144;SDS011;69555;53.014;8.886;2023-07-13T03:28:46;19.75;;;5.80;;
34144;SDS011;69555;53.014;8.886;2023-07-13T03:31:13;15.52;;;5.05;;
34144;SDS011;69555;53.014;8.886;2023-07-13T03:33:42;16.73;;;4.82;;
34144;SDS011;69555;53.014;8.886;2023-07-13T03:36:12;10.38;;;4.88;;
34144;SDS011;69555;53.014;8.886;2023-07-13T03:38:41;22.83;;;5.53;;
34144;SDS011;69555;53.014;8.886;2023-07-13T03:41:06;14.48;;;4.60;;
34144;SDS011;69555;53.014;8.886;2023-07-13T03:43:32;16.88;;;4.15;;
34144;SDS011;69555;53.014;8.886;2023-07-13T03:45:57;21.92;;;5.45;;
34144;SDS011;69555;53.014;8.886;2023-07-13T03:48:23;17.60;;;4.75;;
34144;SDS011;69555;53.014;8.886;2023-07-13T03:50:48;24.50;;;5.13;;
34144;SDS011;69555;53.014;8.886;2023-07-13T03:53:16;11.57;;;4.53;;
34144;SDS011;69555;53.014;8.886;2023-07-13T03:55:42;19.17;;;5.00;;
34144;SDS011;69555;53.014;8.886;2023-07-13T03:58:24;15.23;;;3.90;;
34144;SDS011;69555;53.014;8.886;2023-07-13T04:00:50;26.77;;;6.03;;
34144;SDS011;69555;53.014;8.886;2023-07-13T04:03:15;16.10;;;4.45;;
34144;SDS011;69555;53.014;8.886;2023-07-13T04:05:41;21.30;;;4.95;;
34144;SDS011;69555;53.014;8.886;2023-07-13T04:08:06;20.70;;;4.47;;
34144;SDS011;69555;53.014;8.886;2023-07-13T04:10:32;19.95;;;4.45;;
34144;SDS011;69555;53.014;8.886;2023-07-13T04:12:57;18.42;;;3.70;;
34144;SDS011;69555;53.014;8.886;2023-07-13T04:15:23;25.48;;;4.63;;
34144;SDS011;69555;53.014;8.886;2023-07-13T04:17:48;14.48;;;4.40;;
34144;SDS011;69555;53.014;8.886;2023-07-13T04:20:14;8.95;;;3.55;;
34144;SDS011;69555;53.014;8.886;2023-07-13T04:22:39;17.40;;;3.60;;
34144;SDS011;69555;53.014;8.886;2023-07-13T04:25:05;16.77;;;4.38;;
34144;SDS011;69555;53.014;8.886;2023-07-13T04:27:31;14.18;;;4.13;;
34144;SDS011;69555;53.014;8.886;2023-07-13T04:29:56;13.20;;;4.03;;
34144;SDS011;69555;53.014;8.886;2023-07-13T04:32:21;16.20;;;3.55;;
34144;SDS011;69555;53.014;8.886;2023-07-13T04:34:47;14.57;;;3.50;;
34144;SDS011;69555;53.014;8.886;2023-07-13T04:37:18;23.48;;;4.78;;
34144;SDS011;69555;53.014;8.886;2023-07-13T04:39:43;10.80;;;3.47;;
34144;SDS011;69555;53.014;8.886;2023-07-13T04:42:09;21.08;;;3.95;;
34144;SDS011;69555;53.014;8.886;2023-07-13T04:44:34;18.65;;;4.07;;
34144;SDS011;69555;53.014;8.886;2023-07-13T04:46:59;17.33;;;4.05;;
34144;SDS011;69555;53.014;8.886;2023-07-13T04:49:25;12.80;;;4.13;;
34144;SDS011;69555;53.014;8.886;2023-07-13T04:51:50;12.90;;;3.78;;
34144;SDS011;69555;53.014;8.886;2023-07-13T04:54:16;15.85;;;3.63;;
34144;SDS011;69555;53.014;8.886;2023-07-13T04:56:41;29.55;;;4.95;;
34144;SDS011;69555;53.014;8.886;2023-07-13T04:59:07;21.20;;;4.57;;
34144;SDS011;69555;53.014;8.886;2023-07-13T05:01:32;21.63;;;3.83;;
34144;SDS011;69555;53.014;8.886;2023-07-13T05:03:58;16.80;;;3.90;;
34144;SDS011;69555;53.014;8.886;2023-07-13T05:06:24;19.48;;;4.78;;
34144;SDS011;69555;53.014;8.886;2023-07-13T05:08:49;13.50;;;4.20;;
34144;SDS011;69555;53.014;8.886;2023-07-13T05:11:15;19.35;;;4.55;;
34144;SDS011;69555;53.014;8.886;2023-07-13T05:13:40;17.25;;;4.22;;
34144;SDS011;69555;53.014;8.886;2023-07-13T05:16:06;12.20;;;4.30;;
34144;SDS011;69555;53.014;8.886;2023-07-13T05:18:32;16.42;;;3.33;;
34144;SDS011;69555;53.014;8.886;2023-07-13T05:20:59;8.80;;;3.15;;
34144;SDS011;69555;53.014;8.886;2023-07-13T05:23:29;17.25;;;4.00;;
34144;SDS011;69555;53.014;8.886;2023-07-13T05:25:56;8.60;;;3.50;;
34144;SDS011;69555;53.014;8.886;2023-07-13T05:28:22;12.23;;;4.00;;
34144;SDS011;69555;53.014;8.886;2023-07-13T05:30:48;10.20;;;3.47;;
34144;SDS011;69555;53.014;8.886;2023-07-13T05:33:14;13.27;;;3.80;;
34144;SDS011;69555;53.014;8.886;2023-07-13T05:35:39;15.07;;;3.17;;
34144;SDS011;69555;53.014;8.886;2023-07-13T05:38:05;14.52;;;3.50;;
34144;SDS011;69555;53.014;8.886;2023-07-13T05:40:31;15.48;;;2.83;;
34144;SDS011;69555;53.014;8.886;2023-07-13T05:42:56;7.10;;;3.05;;
34144;SDS011;69555;53.014;8.886;2023-07-13T05:45:22;15.32;;;3.90;;
34144;SDS011;69555;53.014;8.886;2023-07-13T05:47:47;18.90;;;3.22;;
34144;SDS011;69555;53.014;8.886;2023-07-13T05:50:13;16.73;;;4.43;;
34144;SDS011;69555;53.014;8.886;2023-07-13T05:52:39;20.35;;;4.53;;
34144;SDS011;69555;53.014;8.886;2023-07-13T05:55:04;14.60;;;3.20;;
34144;SDS011;69555;53.014;8.886;2023-07-13T05:57:30;19.90;;;4.18;;
34144;SDS011;69555;53.014;8.886;2023-07-13T05:59:55;17.90;;;2.97;;
34144;SDS011;69555;53.014;8.886;2023-07-13T06:02:21;13.27;;;3.08;;
34144;SDS011;69555;53.014;8.886;2023-07-13T06:04:46;12.90;;;2.97;;
34144;SDS011;69555;53.014;8.886;2023-07-13T06:07:11;14.73;;;4.65;;
34144;SDS011;69555;53.014;8.886;2023-07-13T06:09:37;10.68;;;3.00;;
34144;SDS011;69555;53.014;8.886;2023-07-13T06:12:03;11.05;;;3.33;;
34144;SDS011;69555;53.014;8.886;2023-07-13T06:14:29;10.35;;;2.30;;
34144;SDS011;69555;53.014;8.886;2023-07-13T06:16:55;12.00;;;3.17;;
34144;SDS011;69555;53.014;8.886;2023-07-13T06:19:20;14.05;;;3.03;;
34144;SDS011;69555;53.014;8.886;2023-07-13T06:21:45;18.67;;;3.42;;
34144;SDS011;69555;53.014;8.886;2023-07-13T06:24:11;20.58;;;3.40;;
34144;SDS011;69555;53.014;8.886;2023-07-13T06:26:36;9.52;;;2.50;;
34144;SDS011;69555;53.014;8.886;2023-07-13T06:29:02;12.68;;;2.55;;
34144;SDS011;69555;53.014;8.886;2023-07-13T06:31:27;13.25;;;2.78;;
34144;SDS011;69555;53.014;8.886;2023-07-13T06:33:53;10.73;;;2.95;;
34144;SDS011;69555;53.014;8.886;2023-07-13T06:36:18;11.25;;;3.30;;
34144;SDS011;69555;53.014;8.886;2023-07-13T06:38:44;15.88;;;3.15;;
34144;SDS011;69555;53.014;8.886;2023-07-13T06:41:09;17.75;;;3.33;;
34144;SDS011;69555;53.014;8.886;2023-07-13T06:43:34;14.15;;;3.30;;
34144;SDS011;69555;53.014;8.886;2023-07-13T06:46:00;16.60;;;3.67;;
34144;SDS011;69555;53.014;8.886;2023-07-13T06:48:26;13.55;;;3.22;;
34144;SDS011;69555;53.014;8.886;2023-07-13T06:50:51;9.52;;;2.92;;
34144;SDS011;69555;53.014;8.886;2023-07-13T06:53:18;10.63;;;2.60;;
34144;SDS011;69555;53.014;8.886;2023-07-13T06:55:44;12.98;;;2.90;;
34144;SDS011;69555;53.014;8.886;2023-07-13T06:58:10;18.77;;;4.72;;
34144;SDS011;69555;53.014;8.886;2023-07-13T07:00:36;13.02;;;3.28;;
34144;SDS011;69555;53.014;8.886;2023-07-13T07:03:02;16.45;;;2.72;;
34144;SDS011;69555;53.014;8.886;2023-07-13T07:05:27;12.70;;;2.80;;
34144;SDS011;69555;53.014;8.886;2023-07-13T07:07:53;12.95;;;3.60;;
34144;SDS011;69555;53.014;8.886;2023-07-13T07:10:19;15.10;;;3.17;;
34144;SDS011;69555;53.014;8.886;2023-07-13T07:12:45;12.52;;;2.80;;
34144;SDS011;69555;53.014;8.886;2023-07-13T07:15:10;9.18;;;3.17;;
34144;SDS011;69555;53.014;8.886;2023-07-13T07:17:36;15.40;;;3.53;;
34144;SDS011;69555;53.014;8.886;2023-07-13T07:20:02;10.82;;;3.63;;
34144;SDS011;69555;53.014;8.886;2023-07-13T07:22:28;11.95;;;2.40;;
34144;SDS011;69555;53.014;8.886;2023-07-13T07:24:55;9.40;;;2.65;;
34144;SDS011;69555;53.014;8.886;2023-07-13T07:27:21;14.50;;;3.33;;
34144;SDS011;69555;53.014;8.886;2023-07-13T07:29:46;13.45;;;3.40;;
34144;SDS011;69555;53.014;8.886;2023-07-13T07:32:12;13.38;;;2.83;;
34144;SDS011;69555;53.014;8.886;2023-07-13T07:34:37;10.93;;;2.53;;
34144;SDS011;69555;53.014;8.886;2023-07-13T07:37:02;11.20;;;2.92;;
34144;SDS011;69555;53.014;8.886;2023-07-13T07:39:28;10.18;;;2.60;;
34144;SDS011;69555;53.014;8.886;2023-07-13T07:41:54;18.77;;;3.80;;
34144;SDS011;69555;53.014;8.886;2023-07-13T07:44:19;15.57;;;3.60;;
34144;SDS011;69555;53.014;8.886;2023-07-13T07:46:45;12.85;;;3.47;;
34144;SDS011;69555;53.014;8.886;2023-07-13T07:49:10;12.30;;;3.10;;
34144;SDS011;69555;53.014;8.886;2023-07-13T07:51:36;9.73;;;3.45;;
34144;SDS011;69555;53.014;8.886;2023-07-13T07:54:01;14.82;;;4.55;;
34144;SDS011;69555;53.014;8.886;2023-07-13T07:56:28;13.88;;;3.80;;
34144;SDS011;69555;53.014;8.886;2023-07-13T07:58:53;14.32;;;3.08;;
34144;SDS011;69555;53.014;8.886;2023-07-13T08:01:18;11.60;;;3.20;;
34144;SDS011;69555;53.014;8.886;2023-07-13T08:03:44;17.73;;;4.25;;
34144;SDS011;69555;53.014;8.886;2023-07-13T08:06:09;9.57;;;3.03;;
34144;SDS011;69555;53.014;8.886;2023-07-13T08:08:34;10.43;;;3.80;;
34144;SDS011;69555;53.014;8.886;2023-07-13T08:11:04;18.13;;;3.63;;
34144;SDS011;69555;53.014;8.886;2023-07-13T08:13:31;8.15;;;3.22;;
34144;SDS011;69555;53.014;8.886;2023-07-13T08:15:56;13.68;;;3.45;;
34144;SDS011;69555;53.014;8.886;2023-07-13T08:18:22;15.93;;;3.10;;
34144;SDS011;69555;53.014;8.886;2023-07-13T08:20:47;7.20;;;2.83;;
34144;SDS011;69555;53.014;8.886;2023-07-13T08:23:12;9.57;;;3.13;;
34144;SDS011;69555;53.014;8.886;2023-07-13T08:25:38;15.25;;;4.10;;
34144;SDS011;69555;53.014;8.886;2023-07-13T08:28:03;9.35;;;2.60;;
34144;SDS011;69555;53.014;8.886;2023-07-13T08:30:29;13.38;;;3.47;;
34144;SDS011;69555;53.014;8.886;2023-07-13T08:32:55;7.88;;;3.35;;
34144;SDS011;69555;53.014;8.886;2023-07-13T08:35:20;9.55;;;2.78;;
34144;SDS011;69555;53.014;8.886;2023-07-13T08:37:46;5.90;;;3.10;;
34144;SDS011;69555;53.014;8.886;2023-07-13T08:40:12;12.25;;;3.63;;
34144;SDS011;69555;53.014;8.886;2023-07-13T08:42:39;12.73;;;4.30;;
34144;SDS011;69555;53.014;8.886;2023-07-13T08:45:29;12.95;;;2.97;;
34144;SDS011;69555;53.014;8.886;2023-07-13T08:48:39;9.20;;;3.00;;
34144;SDS011;69555;53.014;8.886;2023-07-13T08:50:50;11.70;;;3.45;;
34144;SDS011;69555;53.014;8.886;2023-07-13T08:53:21;8.90;;;2.90;;
34144;SDS011;69555;53.014;8.886;2023-07-13T08:55:48;8.95;;;2.80;;
34144;SDS011;69555;53.014;8.886;2023-07-13T08:58:17;7.75;;;3.20;;
34144;SDS011;69555;53.014;8.886;2023-07-13T09:03:12;14.60;;;3.53;;
34144;SDS011;69555;53.014;8.886;2023-07-13T09:05:45;13.10;;;3.33;;
34144;SDS011;69555;53.014;8.886;2023-07-13T09:13:58;7.50;;;2.58;;
34144;SDS011;69555;53.014;8.886;2023-07-13T09:16:31;9.43;;;3.13;;
34144;SDS011;69555;53.014;8.886;2023-07-13T09:18:59;11.00;;;3.78;;
34144;SDS011;69555;53.014;8.886;2023-07-13T09:21:31;6.13;;;2.40;;
34144;SDS011;69555;53.014;8.886;2023-07-13T09:24:06;7.63;;;2.78;;
34144;SDS011;69555;53.014;8.886;2023-07-13T09:26:58;10.30;;;2.97;;
34144;SDS011;69555;53.014;8.886;2023-07-13T09:29:29;11.68;;;3.30;;
34144;SDS011;69555;53.014;8.886;2023-07-13T09:32:01;8.23;;;2.75;;
34144;SDS011;69555;53.014;8.886;2023-07-13T09:34:28;8.10;;;2.25;;
34144;SDS011;69555;53.014;8.886;2023-07-13T09:36:55;9.95;;;2.55;;
34144;SDS011;69555;53.014;8.886;2023-07-13T09:42:07;13.90;;;2.53;;
34144;SDS011;69555;53.014;8.886;2023-07-13T09:44:51;9.73;;;2.60;;
34144;SDS011;69555;53.014;8.886;2023-07-13T09:47:18;7.72;;;2.95;;
34144;SDS011;69555;53.014;8.886;2023-07-13T09:49:48;7.28;;;2.45;;
34144;SDS011;69555;53.014;8.886;2023-07-13T09:52:20;11.90;;;2.80;;
34144;SDS011;69555;53.014;8.886;2023-07-13T09:54:46;8.25;;;2.90;;
34144;SDS011;69555;53.014;8.886;2023-07-13T09:57:17;5.45;;;2.33;;
34144;SDS011;69555;53.014;8.886;2023-07-13T09:59:46;6.05;;;2.42;;
34144;SDS011;69555;53.014;8.886;2023-07-13T10:04:56;8.80;;;2.90;;
34144;SDS011;69555;53.014;8.886;2023-07-13T10:07:23;10.85;;;2.97;;
34144;SDS011;69555;53.014;8.886;2023-07-13T10:09:59;10.77;;;3.15;;
34144;SDS011;69555;53.014;8.886;2023-07-13T10:12:27;5.82;;;2.63;;
34144;SDS011;69555;53.014;8.886;2023-07-13T10:14:55;8.40;;;2.70;;
34144;SDS011;69555;53.014;8.886;2023-07-13T10:17:26;8.07;;;2.57;;
34144;SDS011;69555;53.014;8.886;2023-07-13T10:19:56;11.68;;;2.53;;
34144;SDS011;69555;53.014;8.886;2023-07-13T10:22:42;7.75;;;2.40;;
34144;SDS011;69555;53.014;8.886;2023-07-13T10:25:23;5.60;;;2.70;;
34144;SDS011;69555;53.014;8.886;2023-07-13T10:27:51;12.63;;;2.42;;
34144;SDS011;69555;53.014;8.886;2023-07-13T10:30:23;10.82;;;2.67;;
34144;SDS011;69555;53.014;8.886;2023-07-13T10:32:57;12.55;;;3.08;;
34144;SDS011;69555;53.014;8.886;2023-07-13T10:35:24;9.18;;;2.20;;
34144;SDS011;69555;53.014;8.886;2023-07-13T10:37:53;6.40;;;3.20;;
34144;SDS011;69555;53.014;8.886;2023-07-13T10:40:27;4.95;;;2.40;;
34144;SDS011;69555;53.014;8.886;2023-07-13T10:42:57;8.13;;;2.53;;
34144;SDS011;69555;53.014;8.886;2023-07-13T10:47:54;8.60;;;2.20;;
34144;SDS011;69555;53.014;8.886;2023-07-13T10:50:25;13.40;;;2.95;;
34144;SDS011;69555;53.014;8.886;2023-07-13T10:53:00;13.50;;;4.00;;
34144;SDS011;69555;53.014;8.886;2023-07-13T10:58:19;6.63;;;3.40;;
34144;SDS011;69555;53.014;8.886;2023-07-13T11:03:31;7.90;;;2.58;;
34144;SDS011;69555;53.014;8.886;2023-07-13T11:06:42;3.35;;;2.58;;
34144;SDS011;69555;53.014;8.886;2023-07-13T11:09:43;7.45;;;3.28;;
34144;SDS011;69555;53.014;8.886;2023-07-13T11:11:46;11.35;;;4.00;;
34144;SDS011;69555;53.014;8.886;2023-07-13T11:16:50;7.35;;;4.97;;
34144;SDS011;69555;53.014;8.886;2023-07-13T11:22:02;9.82;;;4.25;;
34144;SDS011;69555;53.014;8.886;2023-07-13T11:24:57;10.88;;;3.95;;
34144;SDS011;69555;53.014;8.886;2023-07-13T11:33:15;8.38;;;4.40;;
34144;SDS011;69555;53.014;8.886;2023-07-13T11:35:46;9.30;;;4.38;;
34144;SDS011;69555;53.014;8.886;2023-07-13T11:39:00;7.95;;;3.58;;
34144;SDS011;69555;53.014;8.886;2023-07-13T11:43:40;8.75;;;3.75;;
34144;SDS011;69555;53.014;8.886;2023-07-13T11:46:16;6.38;;;3.30;;
34144;SDS011;69555;53.014;8.886;2023-07-13T11:48:48;11.80;;;4.07;;
34144;SDS011;69555;53.014;8.886;2023-07-13T11:51:37;7.88;;;3.85;;
34144;SDS011;69555;53.014;8.886;2023-07-13T11:54:05;7.40;;;3.00;;
34144;SDS011;69555;53.014;8.886;2023-07-13T11:56:38;4.10;;;2.58;;
34144;SDS011;69555;53.014;8.886;2023-07-13T11:59:05;4.78;;;2.30;;
34144;SDS011;69555;53.014;8.886;2023-07-13T12:01:42;3.40;;;1.70;;
34144;SDS011;69555;53.014;8.886;2023-07-13T12:04:29;1.92;;;1.40;;
34144;SDS011;69555;53.014;8.886;2023-07-13T12:06:58;3.53;;;1.55;;
34144;SDS011;69555;53.014;8.886;2023-07-13T12:09:29;3.08;;;1.67;;
34144;SDS011;69555;53.014;8.886;2023-07-13T12:11:56;5.00;;;2.00;;
34144;SDS011;69555;53.014;8.886;2023-07-13T12:14:23;4.78;;;1.92;;
34144;SDS011;69555;53.014;8.886;2023-07-13T12:16:51;4.97;;;1.55;;
34144;SDS011;69555;53.014;8.886;2023-07-13T12:19:19;2.28;;;1.42;;
34144;SDS011;69555;53.014;8.886;2023-07-13T12:21:50;6.32;;;1.70;;
34144;SDS011;69555;53.014;8.886;2023-07-13T12:24:18;4.45;;;1.50;;
34144;SDS011;69555;53.014;8.886;2023-07-13T12:26:50;2.38;;;1.45;;
34144;SDS011;69555;53.014;8.886;2023-07-13T12:29:20;4.57;;;1.45;;
34144;SDS011;69555;53.014;8.886;2023-07-13T12:31:47;4.00;;;1.88;;
34144;SDS011;69555;53.014;8.886;2023-07-13T12:34:15;6.03;;;1.58;;
34144;SDS011;69555;53.014;8.886;2023-07-13T12:36:52;3.28;;;1.30;;
34144;SDS011;69555;53.014;8.886;2023-07-13T12:39:21;6.47;;;1.58;;
34144;SDS011;69555;53.014;8.886;2023-07-13T12:41:48;2.28;;;1.48;;
34144;SDS011;69555;53.014;8.886;2023-07-13T12:44:16;3.00;;;1.10;;
34144;SDS011;69555;53.014;8.886;2023-07-13T12:47:02;2.75;;;1.25;;
34144;SDS011;69555;53.014;8.886;2023-07-13T12:49:40;2.97;;;1.42;;
34144;SDS011;69555;53.014;8.886;2023-07-13T12:52:10;1.52;;;1.17;;
34144;SDS011;69555;53.014;8.886;2023-07-13T12:54:39;2.13;;;1.27;;
34144;SDS011;69555;53.014;8.886;2023-07-13T12:57:05;3.20;;;1.38;;
34144;SDS011;69555;53.014;8.886;2023-07-13T12:59:34;4.90;;;1.20;;
34144;SDS011;69555;53.014;8.886;2023-07-13T13:02:01;4.38;;;1.33;;
34144;SDS011;69555;53.014;8.886;2023-07-13T13:04:27;4.10;;;1.52;;
34144;SDS011;69555;53.014;8.886;2023-07-13T13:07:03;3.28;;;1.10;;
34144;SDS011;69555;53.014;8.886;2023-07-13T13:09:31;1.23;;;0.98;;
34144;SDS011;69555;53.014;8.886;2023-07-13T13:11:57;1.58;;;1.40;;
34144;SDS011;69555;53.014;8.886;2023-07-13T13:14:23;3.22;;;1.00;;
34144;SDS011;69555;53.014;8.886;2023-07-13T13:16:49;4.10;;;1.70;;
34144;SDS011;69555;53.014;8.886;2023-07-13T13:21:42;2.92;;;1.10;;
34144;SDS011;69555;53.014;8.886;2023-07-13T13:24:13;1.38;;;1.00;;
34144;SDS011;69555;53.014;8.886;2023-07-13T13:26:40;1.52;;;1.08;;
34144;SDS011;69555;53.014;8.886;2023-07-13T13:29:10;2.13;;;1.23;;
34144;SDS011;69555;53.014;8.886;2023-07-13T13:31:40;3.55;;;1.10;;
34144;SDS011;69555;53.014;8.886;2023-07-13T13:34:12;0.93;;;0.77;;
34144;SDS011;69555;53.014;8.886;2023-07-13T13:36:40;1.90;;;0.90;;
34144;SDS011;69555;53.014;8.886;2023-07-13T13:39:15;2.22;;;1.02;;
34144;SDS011;69555;53.014;8.886;2023-07-13T13:41:43;0.80;;;0.80;;
34144;SDS011;69555;53.014;8.886;2023-07-13T13:44:09;2.30;;;0.85;;
34144;SDS011;69555;53.014;8.886;2023-07-13T13:46:35;1.40;;;1.10;;
34144;SDS011;69555;53.014;8.886;2023-07-13T13:49:01;1.25;;;0.90;;
34144;SDS011;69555;53.014;8.886;2023-07-13T13:51:27;2.63;;;1.30;;
34144;SDS011;69555;53.014;8.886;2023-07-13T13:53:53;2.28;;;1.35;;
34144;SDS011;69555;53.014;8.886;2023-07-13T13:56:18;3.95;;;2.50;;
34144;SDS011;69555;53.014;8.886;2023-07-13T13:58:44;4.38;;;3.60;;
34144;SDS011;69555;53.014;8.886;2023-07-13T14:01:18;8.13;;;5.15;;
34144;SDS011;69555;53.014;8.886;2023-07-13T14:03:45;7.22;;;4.65;;
34144;SDS011;69555;53.014;8.886;2023-07-13T14:06:11;10.68;;;5.72;;
34144;SDS011;69555;53.014;8.886;2023-07-13T14:08:40;7.40;;;4.38;;
34144;SDS011;69555;53.014;8.886;2023-07-13T14:11:09;8.07;;;3.53;;
34144;SDS011;69555;53.014;8.886;2023-07-13T14:13:42;7.57;;;3.15;;
34144;SDS011;69555;53.014;8.886;2023-07-13T14:16:12;6.93;;;3.35;;
34144;SDS011;69555;53.014;8.886;2023-07-13T14:18:44;10.65;;;3.65;;
34144;SDS011;69555;53.014;8.886;2023-07-13T14:21:11;5.95;;;3.17;;
34144;SDS011;69555;53.014;8.886;2023-07-13T14:23:43;7.28;;;3.47;;
34144;SDS011;69555;53.014;8.886;2023-07-13T14:26:14;4.03;;;3.03;;
34144;SDS011;69555;53.014;8.886;2023-07-13T14:28:42;11.30;;;4.68;;
34144;SDS011;69555;53.014;8.886;2023-07-13T14:31:13;5.20;;;3.53;;
34144;SDS011;69555;53.014;8.886;2023-07-13T14:33:39;5.95;;;3.30;;
34144;SDS011;69555;53.014;8.886;2023-07-13T14:36:50;8.98;;;3.90;;
34144;SDS011;69555;53.014;8.886;2023-07-13T14:38:59;7.43;;;3.90;;
34144;SDS011;69555;53.014;8.886;2023-07-13T14:41:31;7.10;;;4.00;;
34144;SDS011;69555;53.014;8.886;2023-07-13T14:43:56;7.05;;;3.78;;
34144;SDS011;69555;53.014;8.886;2023-07-13T14:46:29;7.03;;;3.65;;
34144;SDS011;69555;53.014;8.886;2023-07-13T14:49:00;8.60;;;4.45;;
34144;SDS011;69555;53.014;8.886;2023-07-13T14:51:30;6.82;;;3.28;;
34144;SDS011;69555;53.014;8.886;2023-07-13T14:53:58;8.40;;;3.78;;
34144;SDS011;69555;53.014;8.886;2023-07-13T14:56:27;12.32;;;3.03;;
34144;SDS011;69555;53.014;8.886;2023-07-13T14:58:52;15.63;;;4.32;;
34144;SDS011;69555;53.014;8.886;2023-07-13T15:01:18;6.45;;;2.80;;
34144;SDS011;69555;53.014;8.886;2023-07-13T15:03:45;7.72;;;3.17;;
34144;SDS011;69555;53.014;8.886;2023-07-13T15:06:12;8.88;;;2.70;;
34144;SDS011;69555;53.014;8.886;2023-07-13T15:08:39;4.07;;;1.92;;
34144;SDS011;69555;53.014;8.886;2023-07-13T15:11:06;4.35;;;1.55;;
34144;SDS011;69555;53.014;8.886;2023-07-13T15:13:32;4.60;;;1.90;;
34144;SDS011;69555;53.014;8.886;2023-07-13T15:15:58;4.95;;;2.42;;
34144;SDS011;69555;53.014;8.886;2023-07-13T15:18:23;4.65;;;2.17;;
34144;SDS011;69555;53.014;8.886;2023-07-13T15:20:50;3.08;;;1.75;;
34144;SDS011;69555;53.014;8.886;2023-07-13T15:23:20;5.82;;;1.70;;